METAR Data
IDs: Format: Raw Decoded Include TAF

Data at: 2103 UTC 01 Dec 2021

METAR for:KELA (Eagle Lake Arpt, TX, US)
Text:KELA 012055Z AUTO 21007KT 10SM CLR 25/16 A3009 RMK AO2 T02480158
Temperature: 24.8°C ( 77°F)
Dewpoint: 15.8°C ( 60°F) [RH = 57%]
Pressure (altimeter):30.09 inches Hg (1019.0 mb)
Winds:from the SSW (210 degrees) at 8 MPH (7 knots; 3.6 m/s)
Visibility:10 or more sm (16+ km)
Ceiling:at least 12,000 feet AGL
Clouds:sky clear below 12,000 feet AGL
QC Flag:automated observation with no human augmentation

TAF for:KELA (Eagle Lake Arpt, TX, US)
Text:No data found